Time;durP1;ratioP1;P1;durP2;ratioP2;P2;SDS_P1;SDS_P2;PMS_P1;PMS_P2;Temp;Humidity;BMP_temperature;BMP_pressure;BME280_temperature;BME280_humidity;BME280_pressure;Samples;Min_cycle;Max_cycle;Signal;HPM_P1;HPM_P2
2021/10/21 00:01:47;;;;;;;12.30;11.30;;;16.10;99.90;;;;;;5054143;28;20444;-64
2021/10/21 00:04:14;;;;;;;11.83;11.13;;;16.10;99.90;;;;;;5051584;28;20440;-63
2021/10/21 00:06:42;;;;;;;12.80;11.90;;;16.20;99.90;;;;;;5051706;28;20444;-63
2021/10/21 00:09:09;;;;;;;13.70;13.00;;;16.20;99.90;;;;;;5051321;28;20831;-64
2021/10/21 00:11:36;;;;;;;11.17;10.57;;;16.20;99.90;;;;;;5066853;28;20448;-64
2021/10/21 00:14:04;;;;;;;11.80;11.20;;;16.30;99.90;;;;;;5071501;28;20452;-65
2021/10/21 00:16:31;;;;;;;11.80;11.20;;;16.30;99.90;;;;;;5071503;28;20485;-63
2021/10/21 00:18:58;;;;;;;11.73;11.07;;;16.30;99.90;;;;;;5071385;28;20470;-65
2021/10/21 00:21:25;;;;;;;11.90;11.27;;;16.30;99.90;;;;;;5057659;28;20506;-65
2021/10/21 00:23:53;;;;;;;13.17;11.53;;;16.30;99.90;;;;;;5051366;28;20771;-65
2021/10/21 00:26:20;;;;;;;11.50;10.73;;;16.40;99.90;;;;;;5051612;28;20962;-64
2021/10/21 00:28:46;;;;;;;12.13;11.60;;;16.40;99.90;;;;;;5050783;28;20477;-65
2021/10/21 00:31:13;;;;;;;11.10;10.23;;;16.40;99.90;;;;;;5063042;28;20451;-64
2021/10/21 00:33:40;;;;;;;12.33;11.67;;;16.40;99.90;;;;;;5071448;28;20443;-65
2021/10/21 00:36:07;;;;;;;10.50;9.90;;;16.30;99.90;;;;;;5071212;28;20870;-65
2021/10/21 00:38:34;;;;;;;10.33;9.33;;;16.10;99.90;;;;;;5070911;28;20467;-64
2021/10/21 00:41:02;;;;;;;10.53;9.80;;;16.00;99.90;;;;;;5061292;28;20515;-65
2021/10/21 00:43:35;;;;;;;10.17;9.43;;;15.90;99.90;;;;;;5051216;28;20455;-64
2021/10/21 00:46:04;;;;;;;10.00;9.40;;;15.80;99.90;;;;;;5051335;28;20443;-64
2021/10/21 00:48:31;;;;;;;8.73;8.33;;;15.80;99.90;;;;;;5050709;28;20488;-65
2021/10/21 00:50:58;;;;;;;8.70;8.00;;;15.70;99.90;;;;;;5060063;28;20512;-65
2021/10/21 00:53:25;;;;;;;8.87;8.23;;;15.70;99.90;;;;;;5071127;28;20447;-65
2021/10/21 00:55:52;;;;;;;8.73;8.20;;;15.70;99.90;;;;;;5070713;28;20497;-64
2021/10/21 00:58:20;;;;;;;8.10;7.70;;;15.70;99.90;;;;;;5070833;28;20467;-64
2021/10/21 01:00:47;;;;;;;7.27;6.70;;;15.70;99.90;;;;;;5063903;28;20451;-65
2021/10/21 01:03:14;;;;;;;8.23;7.53;;;15.70;99.90;;;;;;5050835;28;20448;-64
2021/10/21 01:05:41;;;;;;;6.30;6.10;;;15.70;99.90;;;;;;5053688;28;20440;-63
2021/10/21 01:08:08;;;;;;;7.70;7.30;;;15.80;99.90;;;;;;5054418;28;20482;-63
2021/10/21 01:10:37;;;;;;;7.33;7.03;;;15.80;99.90;;;;;;5059522;28;20451;-63
2021/10/21 01:13:03;;;;;;;7.70;7.30;;;15.80;99.90;;;;;;5074279;28;20439;-63
2021/10/21 01:15:32;;;;;;;8.13;7.70;;;15.80;99.90;;;;;;5034651;28;20448;-63
2021/10/21 01:18:00;;;;;;;8.70;8.30;;;15.80;99.90;;;;;;5034430;28;20500;-63
2021/10/21 01:20:28;;;;;;;9.00;8.53;;;15.90;99.90;;;;;;5042441;28;20439;-63
2021/10/21 01:22:55;;;;;;;8.63;8.33;;;15.80;99.90;;;;;;5074540;28;20449;-62
2021/10/21 01:25:22;;;;;;;9.70;9.30;;;15.80;99.90;;;;;;5074516;28;20444;-63
2021/10/21 01:27:50;;;;;;;9.07;8.73;;;15.70;99.90;;;;;;5074145;28;20996;-63
2021/10/21 01:30:18;;;;;;;9.17;8.97;;;15.70;99.90;;;;;;5071673;28;20443;-63
2021/10/21 01:32:45;;;;;;;9.53;9.20;;;15.70;99.90;;;;;;5054254;28;20444;-62
2021/10/21 01:35:12;;;;;;;10.50;10.10;;;15.70;99.90;;;;;;5054111;28;20440;-62
2021/10/21 01:37:40;;;;;;;9.80;9.60;;;15.60;99.90;;;;;;5054043;28;20487;-63
2021/10/21 01:40:10;;;;;;;10.50;10.10;;;15.60;99.90;;;;;;5054520;28;20443;-63
2021/10/21 01:42:37;;;;;;;11.17;10.77;;;15.50;99.90;;;;;;5073905;28;20465;-63
2021/10/21 01:45:14;;;;;;;11.40;10.70;;;15.40;99.90;;;;;;5074016;28;20451;-63
2021/10/21 01:47:40;;;;;;;11.73;11.23;;;15.40;99.90;;;;;;5074061;28;20455;-62
2021/10/21 01:50:07;;;;;;;11.30;10.90;;;15.40;99.90;;;;;;5072540;28;20716;-63
2021/10/21 01:52:34;;;;;;;11.10;10.70;;;15.50;99.90;;;;;;5073859;28;20944;-63
2021/10/21 01:55:02;;;;;;;11.20;10.80;;;15.50;99.90;;;;;;5073911;28;20454;-63
2021/10/21 01:57:29;;;;;;;12.13;11.63;;;15.50;99.90;;;;;;5073614;28;20502;-62
2021/10/21 01:59:56;;;;;;;11.83;11.43;;;15.50;99.90;;;;;;5064773;28;20452;-63
2021/10/21 02:02:22;;;;;;;14.07;12.67;;;15.40;99.90;;;;;;5053813;28;20929;-63
2021/10/21 02:04:49;;;;;;;15.30;13.90;;;15.30;99.90;;;;;;5053570;28;20448;-63
2021/10/21 02:07:16;;;;;;;12.57;12.00;;;15.10;99.90;;;;;;5053496;28;20444;-61
2021/10/21 02:09:43;;;;;;;13.83;13.03;;;15.10;99.90;;;;;;5059166;28;20452;-63
2021/10/21 02:12:11;;;;;;;13.63;12.93;;;15.00;99.90;;;;;;5073574;28;20448;-62
2021/10/21 02:14:37;;;;;;;13.00;12.40;;;14.90;99.90;;;;;;5073352;28;20530;-62
2021/10/21 02:17:06;;;;;;;13.03;12.50;;;14.90;99.90;;;;;;5064248;28;20477;-61
2021/10/21 02:19:32;;;;;;;13.60;12.90;;;14.80;99.90;;;;;;5053184;28;20448;-62
2021/10/21 02:21:59;;;;;;;13.50;12.60;;;14.80;99.90;;;;;;5053525;28;20444;-63
2021/10/21 02:24:26;;;;;;;12.63;12.23;;;14.70;99.90;;;;;;5053294;28;20448;-61
2021/10/21 02:26:53;;;;;;;13.40;12.60;;;14.70;99.90;;;;;;5059275;28;20444;-62
2021/10/21 02:29:21;;;;;;;12.97;12.47;;;14.70;99.90;;;;;;5072869;28;20475;-61
2021/10/21 02:31:47;;;;;;;13.83;12.83;;;14.70;99.90;;;;;;5073178;28;20443;-63
2021/10/21 02:34:14;;;;;;;14.50;13.63;;;14.70;99.90;;;;;;5073047;28;20450;-62
2021/10/21 02:36:41;;;;;;;13.17;12.47;;;14.60;99.90;;;;;;5068459;28;20472;-62
2021/10/21 02:39:07;;;;;;;13.20;12.63;;;14.60;99.90;;;;;;5052690;28;20473;-62
2021/10/21 02:41:34;;;;;;;12.50;12.10;;;14.50;99.90;;;;;;5053059;28;20921;-63
2021/10/21 02:44:01;;;;;;;12.70;11.70;;;14.50;99.90;;;;;;5053036;28;20444;-63
2021/10/21 02:46:29;;;;;;;12.50;12.10;;;14.40;99.90;;;;;;5054763;28;20444;-63
2021/10/21 02:48:55;;;;;;;13.17;12.33;;;14.40;99.90;;;;;;5072533;28;20873;-63
2021/10/21 02:51:22;;;;;;;12.23;11.93;;;14.30;99.90;;;;;;5072052;28;20670;-63
2021/10/21 02:53:49;;;;;;;13.30;12.80;;;14.30;99.90;;;;;;5052812;28;20547;-62
2021/10/21 02:56:16;;;;;;;12.30;11.70;;;14.30;99.90;;;;;;5052801;28;20483;-61
2021/10/21 02:58:42;;;;;;;12.10;11.73;;;14.30;99.90;;;;;;5052442;28;20879;-63
2021/10/21 03:01:09;;;;;;;13.60;13.03;;;14.30;99.90;;;;;;5052571;28;20448;-63
2021/10/21 03:03:37;;;;;;;13.13;12.10;;;14.30;99.90;;;;;;5070060;28;20762;-62
2021/10/21 03:06:04;;;;;;;11.90;11.50;;;14.30;99.90;;;;;;5072469;28;20446;-63
2021/10/21 03:08:30;;;;;;;12.90;12.30;;;14.30;99.90;;;;;;5072123;28;20467;-62
2021/10/21 03:10:57;;;;;;;12.13;11.67;;;14.30;99.90;;;;;;5072922;28;20461;-62
2021/10/21 03:13:24;;;;;;;12.27;11.50;;;14.30;99.90;;;;;;5056660;28;20448;-63
2021/10/21 03:15:50;;;;;;;13.20;12.20;;;14.30;99.90;;;;;;5052297;28;20824;-63
2021/10/21 03:18:17;;;;;;;11.50;11.00;;;14.30;99.90;;;;;;5052051;28;20263;-63
2021/10/21 03:20:45;;;;;;;11.70;11.20;;;14.30;99.90;;;;;;5052230;28;20445;-62
2021/10/21 03:23:12;;;;;;;11.60;11.10;;;14.40;99.90;;;;;;5066036;28;20466;-63
2021/10/21 03:25:38;;;;;;;11.60;11.20;;;14.40;99.90;;;;;;5072171;28;20443;-63
2021/10/21 03:28:05;;;;;;;11.40;11.00;;;14.40;99.90;;;;;;5071685;28;20470;-63
2021/10/21 03:30:32;;;;;;;11.93;11.33;;;14.40;99.90;;;;;;5071819;28;20804;-63
2021/10/21 03:32:58;;;;;;;12.80;12.10;;;14.40;99.90;;;;;;5059498;28;20451;-62
2021/10/21 03:35:25;;;;;;;14.20;12.77;;;14.40;99.90;;;;;;5051828;28;20447;-63
2021/10/21 03:37:53;;;;;;;11.30;10.90;;;14.40;99.90;;;;;;5051782;28;20765;-62
2021/10/21 03:40:20;;;;;;;11.60;11.20;;;14.50;99.90;;;;;;5051822;28;20448;-62
2021/10/21 03:42:47;;;;;;;12.10;11.70;;;14.40;99.90;;;;;;5060889;28;20443;-62
2021/10/21 03:45:13;;;;;;;12.40;11.90;;;14.40;99.90;;;;;;5051762;28;20444;-62
2021/10/21 03:47:40;;;;;;;12.33;11.73;;;14.40;99.90;;;;;;5051735;28;20479;-62
2021/10/21 03:50:07;;;;;;;12.10;11.50;;;14.40;99.90;;;;;;5051550;28;20816;-62
2021/10/21 03:52:34;;;;;;;13.23;12.47;;;14.40;99.90;;;;;;5059352;28;20455;-61
2021/10/21 03:55:03;;;;;;;12.00;11.50;;;14.30;99.90;;;;;;5071784;28;20451;-62
2021/10/21 03:57:30;;;;;;;12.33;11.93;;;14.30;99.90;;;;;;5061027;28;20484;-63
2021/10/21 03:59:57;;;;;;;12.43;11.77;;;14.20;99.90;;;;;;5051252;28;20452;-61
2021/10/21 04:02:24;;;;;;;12.97;12.13;;;14.20;99.90;;;;;;5057744;28;20451;-60
2021/10/21 04:04:50;;;;;;;12.07;11.73;;;14.20;99.90;;;;;;5071578;28;20959;-62
2021/10/21 04:07:17;;;;;;;12.93;12.33;;;14.20;99.90;;;;;;5071655;28;20447;-62
2021/10/21 04:09:44;;;;;;;12.53;11.93;;;14.20;99.90;;;;;;5071352;28;20444;-62
2021/10/21 04:12:12;;;;;;;12.53;11.87;;;14.30;99.90;;;;;;5067116;28;20447;-62
2021/10/21 04:14:40;;;;;;;12.10;11.67;;;14.30;99.90;;;;;;5051494;28;20799;-62
2021/10/21 04:17:07;;;;;;;13.17;12.10;;;14.30;99.90;;;;;;5051273;28;20562;-62
2021/10/21 04:19:33;;;;;;;12.50;11.73;;;14.30;99.90;;;;;;5051184;28;20444;-62
2021/10/21 04:22:02;;;;;;;12.20;11.70;;;14.20;99.90;;;;;;5054063;28;20833;-64
2021/10/21 04:24:28;;;;;;;14.20;13.00;;;14.20;99.90;;;;;;5071487;28;20899;-64
2021/10/21 04:26:55;;;;;;;12.10;11.70;;;14.20;99.90;;;;;;5071481;28;20466;-63
2021/10/21 04:29:23;;;;;;;13.17;12.67;;;14.20;99.90;;;;;;5071911;28;20489;-63
2021/10/21 04:31:50;;;;;;;13.10;12.57;;;14.20;99.90;;;;;;5071702;28;20458;-63
2021/10/21 04:34:17;;;;;;;13.43;12.83;;;14.20;99.90;;;;;;5071550;28;20525;-63
2021/10/21 04:36:43;;;;;;;13.30;12.70;;;14.20;99.90;;;;;;5071653;28;20482;-64
2021/10/21 04:39:10;;;;;;;13.83;13.23;;;14.20;99.90;;;;;;5071311;28;20470;-64
2021/10/21 04:41:37;;;;;;;13.33;12.93;;;14.20;99.90;;;;;;5075225;28;20955;-64
2021/10/21 04:44:04;;;;;;;13.23;12.73;;;14.20;99.90;;;;;;5075071;28;20446;-64
2021/10/21 04:46:32;;;;;;;13.63;13.13;;;14.10;99.90;;;;;;5075197;28;20500;-64
2021/10/21 04:48:58;;;;;;;13.87;13.03;;;14.10;99.90;;;;;;5074844;28;20466;-63
2021/10/21 04:51:25;;;;;;;13.67;13.00;;;14.10;99.90;;;;;;5075183;28;20465;-64
2021/10/21 04:53:52;;;;;;;13.67;13.17;;;14.10;99.90;;;;;;5074973;28;20450;-64
2021/10/21 04:56:18;;;;;;;13.47;13.07;;;14.10;99.90;;;;;;5075086;28;20439;-63
2021/10/21 04:58:45;;;;;;;13.50;13.00;;;14.00;99.90;;;;;;5074572;28;20881;-64
2021/10/21 05:01:12;;;;;;;12.87;12.47;;;13.90;99.90;;;;;;5074873;28;20439;-64
2021/10/21 05:03:40;;;;;;;12.50;12.07;;;13.90;99.90;;;;;;5074521;28;20450;-63
2021/10/21 05:06:06;;;;;;;11.90;11.60;;;13.70;99.90;;;;;;5074701;28;20446;-63
2021/10/21 05:08:33;;;;;;;12.53;12.03;;;13.60;99.90;;;;;;5074340;28;20463;-64
2021/10/21 05:11:00;;;;;;;12.33;11.93;;;13.40;99.90;;;;;;5074644;28;20450;-63
2021/10/21 05:13:27;;;;;;;12.27;11.10;;;13.10;99.90;;;;;;5074531;28;20450;-64
2021/10/21 05:15:53;;;;;;;11.30;10.90;;;13.00;99.90;;;;;;5074555;28;20446;-63
2021/10/21 05:18:20;;;;;;;10.70;10.50;;;12.90;99.90;;;;;;5074154;28;20487;-64
2021/10/21 05:20:48;;;;;;;11.60;11.20;;;12.80;99.90;;;;;;5074361;28;20437;-63
2021/10/21 05:23:15;;;;;;;11.50;11.13;;;12.80;99.90;;;;;;5074368;28;20797;-63
2021/10/21 05:25:42;;;;;;;11.97;11.00;;;12.80;99.90;;;;;;5074449;28;20439;-63
2021/10/21 05:28:08;;;;;;;11.23;10.93;;;12.80;99.90;;;;;;5073833;28;21098;-64
2021/10/21 05:30:35;;;;;;;11.20;10.90;;;12.80;99.90;;;;;;5074337;28;20462;-63
2021/10/21 05:33:02;;;;;;;11.07;10.77;;;12.80;99.90;;;;;;5074375;28;20447;-64
2021/10/21 05:35:29;;;;;;;11.33;11.03;;;12.80;99.90;;;;;;5074011;28;20447;-63
2021/10/21 05:37:57;;;;;;;11.80;11.33;;;12.90;99.90;;;;;;5074075;28;20482;-63
2021/10/21 05:40:24;;;;;;;11.13;10.83;;;12.90;99.90;;;;;;5073934;28;20955;-64
2021/10/21 05:42:51;;;;;;;12.43;11.93;;;12.90;99.90;;;;;;5074032;28;20489;-64
2021/10/21 05:45:18;;;;;;;11.33;11.00;;;12.90;99.90;;;;;;5074025;28;20450;-63
2021/10/21 05:47:46;;;;;;;11.70;11.30;;;12.80;99.90;;;;;;5073738;28;20957;-62
2021/10/21 05:50:13;;;;;;;11.03;10.73;;;12.80;99.90;;;;;;5073780;28;20851;-64
2021/10/21 05:52:40;;;;;;;10.27;10.07;;;12.70;99.90;;;;;;5072845;28;20783;-64
2021/10/21 05:55:09;;;;;;;11.73;9.50;;;12.60;99.90;;;;;;5073819;28;20439;-64
2021/10/21 05:57:36;;;;;;;11.03;10.73;;;12.40;99.90;;;;;;5073520;28;20837;-64
2021/10/21 06:00:04;;;;;;;10.47;10.27;;;12.20;99.90;;;;;;5073511;28;20439;-64
2021/10/21 06:02:31;;;;;;;9.50;9.30;;;11.90;99.90;;;;;;5073620;28;20783;-64
2021/10/21 06:04:58;;;;;;;10.40;10.00;;;11.80;99.90;;;;;;5073431;28;20438;-64
2021/10/21 06:07:24;;;;;;;9.43;9.13;;;11.70;99.90;;;;;;5073617;28;20514;-63
2021/10/21 06:09:56;;;;;;;7.23;7.00;;;11.60;99.90;;;;;;5073141;28;20447;-64
2021/10/21 06:12:24;;;;;;;9.67;9.27;;;11.50;99.90;;;;;;5073501;28;21008;-63
2021/10/21 06:14:51;;;;;;;10.40;10.00;;;11.30;99.90;;;;;;5073389;28;20453;-63
2021/10/21 06:17:18;;;;;;;9.20;8.33;;;11.20;99.90;;;;;;5073124;28;20497;-64
2021/10/21 06:19:44;;;;;;;6.20;6.10;;;11.10;99.90;;;;;;5073306;28;20447;-64
2021/10/21 06:22:13;;;;;;;2.87;2.77;;;10.90;99.90;;;;;;5073326;28;20459;-65
2021/10/21 06:24:40;;;;;;;1.57;1.47;;;10.80;99.90;;;;;;5073331;28;20948;-65
2021/10/21 06:27:06;;;;;;;1.70;1.17;;;10.70;99.90;;;;;;5073107;28;20436;-65
2021/10/21 06:29:34;;;;;;;16.13;1.23;;;10.60;99.90;;;;;;5072910;28;20446;-64
2021/10/21 06:32:01;;;;;;;4.20;0.77;;;10.50;99.90;;;;;;5073204;28;20860;-65
2021/10/21 06:34:28;;;;;;;2.33;1.00;;;10.30;99.90;;;;;;5072884;28;20497;-65
2021/10/21 06:36:55;;;;;;;1.33;1.27;;;10.30;99.90;;;;;;5072980;28;20447;-65
2021/10/21 06:39:21;;;;;;;0.70;0.67;;;10.20;99.90;;;;;;5072750;28;20820;-66
2021/10/21 06:41:48;;;;;;;2.80;1.20;;;10.10;99.90;;;;;;5072950;28;20454;-64
2021/10/21 06:44:15;;;;;;;2.37;1.10;;;10.10;99.90;;;;;;5072944;28;20443;-64
2021/10/21 06:46:43;;;;;;;4.97;1.60;;;10.10;99.90;;;;;;5072879;28;20466;-65
2021/10/21 06:49:10;;;;;;;3.77;1.20;;;10.00;99.90;;;;;;5072409;28;20463;-65
2021/10/21 06:51:36;;;;;;;2.30;1.10;;;10.00;99.90;;;;;;5072559;28;20443;-64
2021/10/21 06:54:03;;;;;;;7.53;1.93;;;9.90;99.90;;;;;;5072654;28;20951;-65
2021/10/21 06:56:30;;;;;;;2.30;0.80;;;9.90;99.90;;;;;;5072631;28;20443;-64
2021/10/21 06:58:57;;;;;;;1.90;1.17;;;9.90;99.90;;;;;;5072047;28;20490;-64
2021/10/21 07:01:23;;;;;;;6.00;1.90;;;9.90;99.90;;;;;;5072626;28;20451;-64
2021/10/21 07:03:51;;;;;;;5.47;1.80;;;9.90;99.90;;;;;;5072230;28;20451;-65
2021/10/21 07:06:18;;;;;;;8.73;2.00;;;10.00;99.90;;;;;;5072398;28;20447;-64
2021/10/21 07:08:45;;;;;;;1.30;1.00;;;9.90;99.90;;;;;;5072232;28;20466;-64
2021/10/21 07:11:11;;;;;;;9.37;2.63;;;9.90;99.90;;;;;;5072347;28;20450;-65
2021/10/21 07:13:38;;;;;;;3.13;1.90;;;9.90;99.90;;;;;;5072339;28;20450;-64
2021/10/21 07:16:05;;;;;;;5.63;2.10;;;9.80;99.90;;;;;;5072483;28;20800;-65
2021/10/21 07:18:33;;;;;;;4.10;2.30;;;9.80;99.90;;;;;;5071842;28;20487;-64
2021/10/21 07:21:01;;;;;;;7.30;2.57;;;9.70;99.90;;;;;;5072213;28;20896;-65
2021/10/21 07:23:28;;;;;;;6.23;2.70;;;9.80;99.90;;;;;;5072431;28;20443;-64
2021/10/21 07:25:55;;;;;;;7.53;2.20;;;9.80;99.90;;;;;;5072144;28;20451;-64
2021/10/21 07:28:22;;;;;;;5.00;2.43;;;9.90;99.90;;;;;;5071799;28;20474;-65
2021/10/21 07:30:52;;;;;;;10.70;3.23;;;9.90;99.90;;;;;;5072014;28;20450;-65
2021/10/21 07:33:19;;;;;;;6.80;2.67;;;10.00;99.90;;;;;;5072105;28;20538;-65
2021/10/21 07:35:45;;;;;;;7.43;2.30;;;10.00;99.90;;;;;;5071956;28;20528;-65
2021/10/21 07:38:14;;;;;;;5.23;1.27;;;10.00;99.90;;;;;;5071614;28;20541;-65
2021/10/21 07:40:40;;;;;;;4.37;1.23;;;10.00;99.90;;;;;;5071941;28;20442;-65
2021/10/21 07:43:09;;;;;;;4.90;1.50;;;10.10;99.90;;;;;;5072089;28;20455;-64
2021/10/21 07:45:35;;;;;;;3.77;1.90;;;10.00;99.90;;;;;;5071913;28;20917;-64
2021/10/21 07:48:02;;;;;;;8.70;2.30;;;9.90;99.90;;;;;;5071623;28;20463;-64
2021/10/21 07:50:29;;;;;;;3.90;1.63;;;9.80;99.90;;;;;;5071556;28;20443;-63
2021/10/21 07:52:56;;;;;;;4.63;2.37;;;9.70;99.90;;;;;;5071825;28;20454;-64
2021/10/21 07:55:24;;;;;;;4.53;1.40;;;9.70;99.90;;;;;;5071555;28;20447;-63
2021/10/21 07:57:51;;;;;;;1.63;1.10;;;9.80;99.90;;;;;;5071430;28;21008;-63
2021/10/21 08:00:17;;;;;;;8.27;1.83;;;9.70;99.90;;;;;;5071663;28;20815;-64
2021/10/21 08:02:44;;;;;;;4.33;1.90;;;9.80;99.90;;;;;;5071666;28;20443;-64
2021/10/21 08:05:11;;;;;;;8.37;2.73;;;9.80;99.90;;;;;;5071392;28;21015;-64
2021/10/21 08:07:39;;;;;;;4.77;1.50;;;10.00;99.90;;;;;;5071265;28;20463;-64
2021/10/21 08:10:07;;;;;;;4.90;1.93;;;10.10;99.90;;;;;;5071246;28;20476;-64
2021/10/21 08:12:35;;;;;;;4.37;2.20;;;10.10;99.90;;;;;;5071501;28;20960;-64
2021/10/21 08:15:02;;;;;;;4.63;1.67;;;10.20;99.90;;;;;;5070623;28;20443;-64
2021/10/21 08:17:29;;;;;;;4.90;2.10;;;10.40;99.90;;;;;;5071374;28;20936;-64
2021/10/21 08:19:56;;;;;;;9.90;2.47;;;10.50;99.90;;;;;;5071225;28;20869;-64
2021/10/21 08:22:23;;;;;;;1.87;1.30;;;10.50;99.90;;;;;;5071381;28;20446;-65
2021/10/21 08:24:50;;;;;;;9.23;1.60;;;10.40;99.90;;;;;;5071310;28;20447;-65
2021/10/21 08:27:17;;;;;;;4.53;1.93;;;10.40;99.90;;;;;;5071110;28;20452;-64
2021/10/21 08:29:45;;;;;;;6.10;1.90;;;10.40;99.90;;;;;;5071131;28;20447;-63
2021/10/21 08:32:12;;;;;;;8.27;2.10;;;10.50;99.90;;;;;;5071300;28;20530;-64
2021/10/21 08:34:40;;;;;;;9.73;2.20;;;10.60;99.90;;;;;;5071445;28;20443;-64
2021/10/21 08:37:08;;;;;;;5.63;1.57;;;10.60;99.90;;;;;;5071306;28;20451;-65
2021/10/21 08:39:35;;;;;;;3.00;1.33;;;10.60;99.90;;;;;;5070997;28;20859;-65
2021/10/21 08:42:03;;;;;;;7.23;2.77;;;10.60;99.90;;;;;;5071592;28;20443;-63
2021/10/21 08:44:29;;;;;;;6.93;2.93;;;10.80;99.90;;;;;;5071365;28;20817;-64
2021/10/21 08:46:58;;;;;;;6.83;2.43;;;10.90;99.90;;;;;;5071372;28;20450;-64
2021/10/21 08:49:25;;;;;;;4.57;3.10;;;11.10;99.90;;;;;;5070891;28;20455;-63
2021/10/21 08:51:53;;;;;;;5.13;2.13;;;11.30;99.90;;;;;;5071171;28;20439;-64
2021/10/21 08:54:20;;;;;;;4.83;1.67;;;11.50;99.90;;;;;;5071275;28;20450;-64
2021/10/21 08:56:48;;;;;;;8.20;3.80;;;11.80;99.90;;;;;;5071053;28;20455;-64
2021/10/21 08:59:14;;;;;;;7.97;4.73;;;11.90;99.90;;;;;;5070501;28;20948;-64
2021/10/21 09:01:44;;;;;;;7.50;6.63;;;11.90;99.90;;;;;;5071132;28;20963;-64
2021/10/21 09:04:20;;;;;;;8.57;7.53;;;11.90;99.90;;;;;;5070725;28;20489;-63
2021/10/21 09:09:32;;;;;;;7.40;2.90;;;11.70;99.90;;;;;;5070396;28;20944;-64
2021/10/21 09:12:04;;;;;;;13.43;7.30;;;12.10;99.90;;;;;;5071094;28;20773;-64
2021/10/21 09:14:34;;;;;;;11.03;10.40;;;12.40;99.90;;;;;;5070783;28;20446;-64
2021/10/21 09:17:02;;;;;;;12.47;11.67;;;12.70;99.90;;;;;;5071227;28;20440;-65
2021/10/21 09:19:30;;;;;;;15.77;14.57;;;12.70;99.90;;;;;;5071366;28;20528;-64
2021/10/21 09:21:57;;;;;;;15.67;15.00;;;12.60;99.90;;;;;;5072196;28;20980;-64
2021/10/21 09:24:27;;;;;;;18.37;17.33;;;12.50;99.90;;;;;;5071212;28;20447;-65
2021/10/21 09:27:00;;;;;;;17.40;16.57;;;12.40;99.90;;;;;;5073810;28;20500;-64
2021/10/21 09:29:26;;;;;;;17.73;16.83;;;12.20;99.90;;;;;;5074199;28;20439;-65
2021/10/21 09:32:04;;;;;;;17.33;16.23;;;12.10;99.90;;;;;;5074470;28;20439;-65
2021/10/21 09:34:32;;;;;;;17.97;17.00;;;12.10;99.90;;;;;;5074285;28;20438;-65
2021/10/21 09:37:05;;;;;;;17.87;17.00;;;12.30;99.90;;;;;;5074157;28;20443;-65
2021/10/21 09:39:42;;;;;;;18.73;17.50;;;12.40;99.90;;;;;;5073709;28;20481;-65
2021/10/21 09:42:09;;;;;;;16.67;16.07;;;12.50;99.90;;;;;;5074321;28;20529;-65
2021/10/21 09:44:36;;;;;;;17.77;16.83;;;12.60;99.90;;;;;;5074218;28;20809;-65
2021/10/21 09:47:15;;;;;;;18.10;17.20;;;12.70;99.90;;;;;;5074082;28;20439;-65
2021/10/21 09:49:44;;;;;;;18.20;17.40;;;12.90;99.90;;;;;;5073984;28;20435;-65
2021/10/21 09:52:22;;;;;;;18.27;17.13;;;12.90;99.90;;;;;;5073868;28;20451;-65
2021/10/21 09:54:50;;;;;;;18.07;17.17;;;12.90;99.90;;;;;;5073907;28;20435;-64
2021/10/21 09:57:18;;;;;;;18.27;17.10;;;12.90;99.90;;;;;;5073720;28;20439;-65
2021/10/21 09:59:46;;;;;;;18.97;17.67;;;12.90;99.90;;;;;;5071472;28;20840;-65
2021/10/21 10:02:17;;;;;;;17.77;17.07;;;12.90;99.90;;;;;;5067224;28;20937;-64
2021/10/21 10:04:52;;;;;;;18.53;17.23;;;13.00;99.90;;;;;;5053747;28;20448;-66
2021/10/21 10:07:20;;;;;;;17.70;16.90;;;13.00;99.90;;;;;;5063902;28;20450;-65
2021/10/21 10:09:48;;;;;;;17.77;16.97;;;13.00;99.90;;;;;;5073375;28;20454;-65
2021/10/21 10:12:15;;;;;;;18.70;17.53;;;13.00;99.90;;;;;;5073449;28;20454;-64
2021/10/21 10:14:42;;;;;;;17.73;16.93;;;12.90;99.90;;;;;;5073228;28;20850;-65
2021/10/21 10:17:11;;;;;;;17.60;16.50;;;12.90;99.90;;;;;;5065063;28;20949;-64
2021/10/21 10:19:43;;;;;;;16.80;15.80;;;12.90;99.90;;;;;;5032573;28;20449;-66
2021/10/21 10:22:15;;;;;;;18.40;17.13;;;12.90;99.90;;;;;;5033464;28;20198;-66
2021/10/21 10:24:42;;;;;;;18.70;17.90;;;13.10;99.90;;;;;;5033441;28;20453;-65
2021/10/21 10:27:21;;;;;;;18.13;17.13;;;13.40;99.90;;;;;;5033208;28;20449;-64
2021/10/21 10:29:48;;;;;;;18.57;17.33;;;13.50;99.90;;;;;;5086969;22;20867;-68
2021/10/21 10:32:42;;;;;;;19.43;18.23;;;13.30;99.90;;;;;;5088480;28;20446;-68
2021/10/21 10:35:12;;;;;;;17.93;17.07;;;13.20;99.90;;;;;;5093140;28;20442;-67
2021/10/21 10:37:57;;;;;;;17.93;17.23;;;13.10;99.90;;;;;;5092523;28;20443;-67
2021/10/21 10:40:44;;;;;;;19.10;17.67;;;13.00;99.90;;;;;;5073346;28;20814;-68
2021/10/21 10:43:12;;;;;;;18.80;17.87;;;13.10;99.90;;;;;;5072934;28;20610;-68
2021/10/21 10:45:51;;;;;;;18.93;17.60;;;13.10;99.90;;;;;;5072762;28;20455;-69
2021/10/21 10:48:58;;;;;;;19.20;18.13;;;13.30;99.90;;;;;;5072487;28;20507;-67
2021/10/21 10:51:58;;;;;;;19.03;18.23;;;13.20;99.90;;;;;;5067565;28;20451;-67
2021/10/21 10:55:02;;;;;;;20.70;19.50;;;13.20;99.90;;;;;;5072594;28;20442;-67
2021/10/21 10:57:54;;;;;;;19.70;17.93;;;13.10;99.90;;;;;;5072540;28;20478;-67
2021/10/21 11:00:38;;;;;;;19.40;17.80;;;13.10;99.90;;;;;;5072381;28;20482;-68
2021/10/21 11:03:06;;;;;;;21.13;19.60;;;13.20;99.90;;;;;;5072472;28;20481;-67
2021/10/21 11:05:55;;;;;;;17.33;16.43;;;13.20;99.90;;;;;;5072230;28;20501;-66
2021/10/21 11:08:56;;;;;;;18.73;17.40;;;13.30;99.90;;;;;;5071965;28;20466;-67
2021/10/21 11:11:48;;;;;;;18.40;17.40;;;13.50;99.90;;;;;;5072044;28;20450;-67
2021/10/21 11:14:16;;;;;;;18.30;17.17;;;13.60;99.90;;;;;;5072093;28;20454;-68
2021/10/21 11:16:54;;;;;;;18.47;17.63;;;13.60;99.90;;;;;;5071949;28;20574;-67
2021/10/21 11:19:51;;;;;;;18.37;17.43;;;13.90;99.90;;;;;;5071757;28;20486;-67
2021/10/21 11:22:40;;;;;;;17.97;17.13;;;13.80;99.90;;;;;;5072195;28;20585;-67
2021/10/21 11:25:14;;;;;;;17.83;16.83;;;13.50;99.90;;;;;;5071882;28;20932;-67
2021/10/21 11:27:43;;;;;;;16.53;15.90;;;13.30;99.90;;;;;;5072119;28;20939;-67
2021/10/21 11:30:13;;;;;;;17.63;16.53;;;13.10;99.90;;;;;;5071613;28;20472;-68
2021/10/21 11:32:42;;;;;;;17.20;16.30;;;12.90;99.90;;;;;;5072052;28;20435;-68
2021/10/21 11:35:14;;;;;;;17.33;15.60;;;12.60;99.90;;;;;;5071737;28;20458;-68
2021/10/21 11:37:46;;;;;;;15.43;14.83;;;12.50;99.90;;;;;;5071537;28;20455;-68
2021/10/21 11:40:25;;;;;;;16.67;15.60;;;12.60;99.90;;;;;;5071539;28;20509;-68
2021/10/21 11:42:54;;;;;;;16.73;15.53;;;12.90;99.90;;;;;;5071596;28;20814;-67
2021/10/21 11:45:25;;;;;;;15.70;15.00;;;12.60;99.90;;;;;;5071532;28;20496;-67
2021/10/21 11:47:56;;;;;;;15.40;14.80;;;12.40;99.90;;;;;;5071630;28;20462;-68
2021/10/21 11:50:31;;;;;;;15.83;15.00;;;12.30;99.90;;;;;;5070723;28;20444;-68
2021/10/21 11:52:59;;;;;;;15.00;14.50;;;12.40;99.90;;;;;;5071651;28;20482;-68
2021/10/21 11:55:27;;;;;;;14.97;14.47;;;12.30;99.90;;;;;;5071538;28;20534;-67
2021/10/21 11:57:54;;;;;;;15.67;15.10;;;12.30;99.90;;;;;;5071231;28;20450;-68
2021/10/21 12:00:23;;;;;;;15.00;14.50;;;12.30;99.90;;;;;;5071440;28;20884;-67
2021/10/21 12:02:54;;;;;;;15.23;14.43;;;12.30;99.90;;;;;;5071345;28;20711;-67
2021/10/21 12:05:25;;;;;;;15.40;14.80;;;12.50;99.90;;;;;;5071338;28;21032;-68
2021/10/21 12:07:52;;;;;;;15.33;14.73;;;12.70;99.90;;;;;;5071157;28;20450;-67
2021/10/21 12:10:32;;;;;;;15.33;14.73;;;12.90;99.90;;;;;;5071366;28;20477;-67
2021/10/21 12:13:00;;;;;;;15.10;14.50;;;13.10;99.90;;;;;;5071078;28;20446;-67
2021/10/21 12:15:29;;;;;;;14.83;14.30;;;12.90;99.90;;;;;;5071323;28;20439;-68
2021/10/21 12:17:56;;;;;;;15.47;14.60;;;12.90;99.90;;;;;;5071025;28;20447;-67
2021/10/21 12:20:40;;;;;;;16.83;16.23;;;13.20;99.90;;;;;;5071124;28;20845;-68
2021/10/21 12:23:18;;;;;;;17.97;16.97;;;14.40;99.90;;;;;;5071379;28;20443;-67
2021/10/21 12:25:49;;;;;;;17.10;16.40;;;15.30;99.90;;;;;;5071334;28;20447;-67
2021/10/21 12:28:17;;;;;;;17.13;16.40;;;15.40;99.90;;;;;;5070892;28;20459;-67
2021/10/21 12:30:44;;;;;;;16.50;15.90;;;15.10;99.90;;;;;;5071261;28;20439;-67
2021/10/21 12:33:12;;;;;;;16.37;15.40;;;14.80;99.90;;;;;;5071083;28;20439;-67
2021/10/21 12:35:57;;;;;;;16.00;15.30;;;14.40;99.90;;;;;;5071159;28;20450;-67
2021/10/21 12:38:25;;;;;;;16.00;15.50;;;13.90;99.90;;;;;;5071042;28;20873;-67
2021/10/21 12:41:01;;;;;;;16.73;16.13;;;13.60;99.90;;;;;;5070749;28;20479;-68
2021/10/21 12:43:27;;;;;;;15.47;14.97;;;13.00;99.90;;;;;;5071057;28;20446;-68
2021/10/21 12:45:54;;;;;;;15.87;15.37;;;12.60;99.90;;;;;;5070922;28;20448;-68